sensor_id;sensor_type;location;lat;lon;timestamp;pressure;altitude;pressure_sealevel;temperature;humidity
65760;BME280;52496;51.082;5.066;2022-10-16T00:00:06;100963.53;;;13.02;100.00
65760;BME280;52496;51.082;5.066;2022-10-16T00:02:37;100969.94;;;13.01;100.00
65760;BME280;52496;51.082;5.066;2022-10-16T00:05:07;100967.28;;;13.01;100.00
65760;BME280;52496;51.082;5.066;2022-10-16T00:07:38;100967.66;;;12.98;100.00
65760;BME280;52496;51.082;5.066;2022-10-16T00:10:08;100968.06;;;12.95;100.00
65760;BME280;52496;51.082;5.066;2022-10-16T00:12:39;100954.00;;;12.93;100.00
65760;BME280;52496;51.082;5.066;2022-10-16T00:15:09;100957.72;;;12.92;100.00
65760;BME280;52496;51.082;5.066;2022-10-16T00:17:40;100951.09;;;12.88;100.00
65760;BME280;52496;51.082;5.066;2022-10-16T00:20:11;100960.53;;;12.83;100.00
65760;BME280;52496;51.082;5.066;2022-10-16T00:22:41;100955.38;;;12.82;100.00
65760;BME280;52496;51.082;5.066;2022-10-16T00:25:12;100953.72;;;12.81;100.00
65760;BME280;52496;51.082;5.066;2022-10-16T00:27:42;100957.63;;;12.78;100.00
65760;BME280;52496;51.082;5.066;2022-10-16T00:30:13;100960.50;;;12.77;100.00
65760;BME280;52496;51.082;5.066;2022-10-16T00:32:43;100968.75;;;12.75;100.00
65760;BME280;52496;51.082;5.066;2022-10-16T00:35:14;100968.94;;;12.74;100.00
65760;BME280;52496;51.082;5.066;2022-10-16T00:37:44;100978.84;;;12.73;100.00
65760;BME280;52496;51.082;5.066;2022-10-16T00:40:15;100981.94;;;12.70;100.00
65760;BME280;52496;51.082;5.066;2022-10-16T00:42:46;100980.28;;;12.69;100.00
65760;BME280;52496;51.082;5.066;2022-10-16T00:45:17;100991.00;;;12.69;100.00
65760;BME280;52496;51.082;5.066;2022-10-16T00:47:48;100991.00;;;12.69;100.00
65760;BME280;52496;51.082;5.066;2022-10-16T00:50:31;100986.03;;;12.66;100.00
65760;BME280;52496;51.082;5.066;2022-10-16T00:53:02;100983.09;;;12.61;100.00
65760;BME280;52496;51.082;5.066;2022-10-16T00:55:33;100976.91;;;12.60;100.00
65760;BME280;52496;51.082;5.066;2022-10-16T00:58:04;100969.03;;;12.59;100.00
65760;BME280;52496;51.082;5.066;2022-10-16T01:00:35;100963.44;;;12.54;100.00
65760;BME280;52496;51.082;5.066;2022-10-16T01:03:32;100970.19;;;12.50;100.00
65760;BME280;52496;51.082;5.066;2022-10-16T01:09:02;100977.53;;;12.41;100.00
65760;BME280;52496;51.082;5.066;2022-10-16T01:12:14;100970.72;;;12.38;100.00
65760;BME280;52496;51.082;5.066;2022-10-16T01:15:19;100971.31;;;12.34;100.00
65760;BME280;52496;51.082;5.066;2022-10-16T01:21:03;100990.06;;;12.34;100.00
65760;BME280;52496;51.082;5.066;2022-10-16T01:24:02;100995.72;;;12.39;100.00
65760;BME280;52496;51.082;5.066;2022-10-16T01:26:50;100992.00;;;12.40;100.00
65760;BME280;52496;51.082;5.066;2022-10-16T01:29:56;100990.72;;;12.36;100.00
65760;BME280;52496;51.082;5.066;2022-10-16T01:32:53;100989.88;;;12.35;100.00
65760;BME280;52496;51.082;5.066;2022-10-16T01:35:36;100989.69;;;12.37;100.00
65760;BME280;52496;51.082;5.066;2022-10-16T01:38:22;100989.47;;;12.38;100.00
65760;BME280;52496;51.082;5.066;2022-10-16T01:41:01;100984.13;;;12.38;100.00
65760;BME280;52496;51.082;5.066;2022-10-16T01:43:38;100982.47;;;12.37;100.00
65760;BME280;52496;51.082;5.066;2022-10-16T01:46:13;100986.56;;;12.33;100.00
65760;BME280;52496;51.082;5.066;2022-10-16T01:48:45;100988.59;;;12.31;100.00
65760;BME280;52496;51.082;5.066;2022-10-16T01:51:17;100989.00;;;12.28;100.00
65760;BME280;52496;51.082;5.066;2022-10-16T01:53:54;100982.38;;;12.24;100.00
65760;BME280;52496;51.082;5.066;2022-10-16T01:56:26;100980.06;;;12.21;100.00
65760;BME280;52496;51.082;5.066;2022-10-16T01:59:08;100979.41;;;12.19;100.00
65760;BME280;52496;51.082;5.066;2022-10-16T02:01:42;100986.63;;;12.19;100.00
65760;BME280;52496;51.082;5.066;2022-10-16T02:04:23;100976.47;;;12.14;100.00
65760;BME280;52496;51.082;5.066;2022-10-16T02:06:55;100977.22;;;12.08;100.00
65760;BME280;52496;51.082;5.066;2022-10-16T02:09:26;100988.53;;;12.03;100.00
65760;BME280;52496;51.082;5.066;2022-10-16T02:11:59;100980.44;;;11.97;100.00
65760;BME280;52496;51.082;5.066;2022-10-16T02:14:32;100984.88;;;11.89;100.00
65760;BME280;52496;51.082;5.066;2022-10-16T02:17:11;100988.97;;;11.85;100.00
65760;BME280;52496;51.082;5.066;2022-10-16T02:19:42;100991.34;;;11.80;100.00
65760;BME280;52496;51.082;5.066;2022-10-16T02:22:23;100990.06;;;11.76;100.00
65760;BME280;52496;51.082;5.066;2022-10-16T02:24:57;100992.09;;;11.74;100.00
65760;BME280;52496;51.082;5.066;2022-10-16T02:27:37;100993.28;;;11.71;100.00
65760;BME280;52496;51.082;5.066;2022-10-16T02:30:31;100987.13;;;11.71;100.00
65760;BME280;52496;51.082;5.066;2022-10-16T02:33:00;100987.50;;;11.68;100.00
65760;BME280;52496;51.082;5.066;2022-10-16T02:35:34;100996.56;;;11.67;100.00
65760;BME280;52496;51.082;5.066;2022-10-16T02:38:05;100992.84;;;11.68;100.00
65760;BME280;52496;51.082;5.066;2022-10-16T02:40:36;100987.50;;;11.68;100.00
65760;BME280;52496;51.082;5.066;2022-10-16T02:43:07;100987.69;;;11.66;100.00
65760;BME280;52496;51.082;5.066;2022-10-16T02:45:39;100999.22;;;11.67;100.00
65760;BME280;52496;51.082;5.066;2022-10-16T02:48:09;100990.38;;;11.66;100.00
65760;BME280;52496;51.082;5.066;2022-10-16T02:50:40;100999.41;;;11.65;100.00
65760;BME280;52496;51.082;5.066;2022-10-16T02:53:11;100994.25;;;11.64;100.00
65760;BME280;52496;51.082;5.066;2022-10-16T02:55:41;101002.94;;;11.66;100.00
65760;BME280;52496;51.082;5.066;2022-10-16T02:58:12;101000.25;;;11.66;100.00
65760;BME280;52496;51.082;5.066;2022-10-16T03:00:42;100999.03;;;11.68;100.00
65760;BME280;52496;51.082;5.066;2022-10-16T03:03:13;100997.81;;;11.71;100.00
65760;BME280;52496;51.082;5.066;2022-10-16T03:05:43;101003.63;;;11.75;100.00
65760;BME280;52496;51.082;5.066;2022-10-16T03:08:15;101005.31;;;11.76;100.00
65760;BME280;52496;51.082;5.066;2022-10-16T03:10:46;101006.16;;;11.76;100.00
65760;BME280;52496;51.082;5.066;2022-10-16T03:13:17;101016.84;;;11.76;100.00
65760;BME280;52496;51.082;5.066;2022-10-16T03:15:47;101013.16;;;11.77;100.00
65760;BME280;52496;51.082;5.066;2022-10-16T03:18:18;101016.47;;;11.79;100.00
65760;BME280;52496;51.082;5.066;2022-10-16T03:20:49;101020.00;;;11.80;100.00
65760;BME280;52496;51.082;5.066;2022-10-16T03:23:19;101013.63;;;11.81;100.00
65760;BME280;52496;51.082;5.066;2022-10-16T03:25:50;101015.75;;;11.85;100.00
65760;BME280;52496;51.082;5.066;2022-10-16T03:28:20;101022.78;;;11.86;100.00
65760;BME280;52496;51.082;5.066;2022-10-16T03:30:51;101033.13;;;11.89;100.00
65760;BME280;52496;51.082;5.066;2022-10-16T03:33:21;101039.78;;;11.93;100.00
65760;BME280;52496;51.082;5.066;2022-10-16T03:35:54;101039.41;;;11.97;100.00
65760;BME280;52496;51.082;5.066;2022-10-16T03:38:25;101046.41;;;11.98;100.00
65760;BME280;52496;51.082;5.066;2022-10-16T03:40:55;101050.13;;;11.97;100.00
65760;BME280;52496;51.082;5.066;2022-10-16T03:43:26;101046.41;;;11.98;100.00
65760;BME280;52496;51.082;5.066;2022-10-16T03:45:56;101050.13;;;11.97;100.00
65760;BME280;52496;51.082;5.066;2022-10-16T03:48:27;101053.81;;;11.96;100.00
65760;BME280;52496;51.082;5.066;2022-10-16T03:50:58;101041.44;;;11.94;100.00
65760;BME280;52496;51.082;5.066;2022-10-16T03:53:29;101041.25;;;11.96;100.00
65760;BME280;52496;51.082;5.066;2022-10-16T03:55:59;101043.94;;;11.96;100.00
65760;BME280;52496;51.082;5.066;2022-10-16T03:58:30;101048.44;;;11.96;100.00
65760;BME280;52496;51.082;5.066;2022-10-16T04:01:01;101043.06;;;11.96;100.00
65760;BME280;52496;51.082;5.066;2022-10-16T04:03:31;101036.13;;;12.01;100.00
65760;BME280;52496;51.082;5.066;2022-10-16T04:06:02;101049.38;;;12.03;100.00
65760;BME280;52496;51.082;5.066;2022-10-16T04:08:32;101057.19;;;12.04;100.00
65760;BME280;52496;51.082;5.066;2022-10-16T04:11:05;101059.34;;;12.09;100.00
65760;BME280;52496;51.082;5.066;2022-10-16T04:13:35;101052.78;;;12.11;100.00
65760;BME280;52496;51.082;5.066;2022-10-16T04:16:06;101042.03;;;12.11;100.00
65760;BME280;52496;51.082;5.066;2022-10-16T04:18:36;101042.50;;;12.15;100.00
65760;BME280;52496;51.082;5.066;2022-10-16T04:21:07;101045.16;;;12.15;100.00
65760;BME280;52496;51.082;5.066;2022-10-16T04:23:38;101055.69;;;12.16;100.00
65760;BME280;52496;51.082;5.066;2022-10-16T04:26:09;101052.84;;;12.18;100.00
65760;BME280;52496;51.082;5.066;2022-10-16T04:28:40;101057.81;;;12.21;100.00
65760;BME280;52496;51.082;5.066;2022-10-16T04:31:11;101068.16;;;12.24;100.00
65760;BME280;52496;51.082;5.066;2022-10-16T04:33:44;101072.13;;;12.28;100.00
65760;BME280;52496;51.082;5.066;2022-10-16T04:36:14;101077.31;;;12.30;100.00
65760;BME280;52496;51.082;5.066;2022-10-16T04:38:45;101071.75;;;12.31;100.00
65760;BME280;52496;51.082;5.066;2022-10-16T04:41:16;101088.47;;;12.33;100.00
65760;BME280;52496;51.082;5.066;2022-10-16T04:43:49;101075.69;;;12.35;100.00
65760;BME280;52496;51.082;5.066;2022-10-16T04:46:19;101077.38;;;12.36;100.00
65760;BME280;52496;51.082;5.066;2022-10-16T04:48:50;101077.38;;;12.36;100.00
65760;BME280;52496;51.082;5.066;2022-10-16T04:51:21;101088.09;;;12.36;100.00
65760;BME280;52496;51.082;5.066;2022-10-16T04:53:51;101090.41;;;12.39;100.00
65760;BME280;52496;51.082;5.066;2022-10-16T04:56:22;101096.38;;;12.42;100.00
65760;BME280;52496;51.082;5.066;2022-10-16T04:58:53;101095.38;;;12.43;100.00
65760;BME280;52496;51.082;5.066;2022-10-16T05:01:24;101095.19;;;12.44;100.00
65760;BME280;52496;51.082;5.066;2022-10-16T05:03:54;101098.88;;;12.43;100.00
65760;BME280;52496;51.082;5.066;2022-10-16T05:06:25;101105.28;;;12.42;100.00
65760;BME280;52496;51.082;5.066;2022-10-16T05:08:55;101107.09;;;12.42;100.00
65760;BME280;52496;51.082;5.066;2022-10-16T05:11:26;101111.66;;;12.41;100.00
65760;BME280;52496;51.082;5.066;2022-10-16T05:13:57;101107.09;;;12.42;100.00
65760;BME280;52496;51.082;5.066;2022-10-16T05:16:28;101111.47;;;12.43;100.00
65760;BME280;52496;51.082;5.066;2022-10-16T05:18:58;101113.13;;;12.44;100.00
65760;BME280;52496;51.082;5.066;2022-10-16T05:21:29;101119.16;;;12.46;100.00
65760;BME280;52496;51.082;5.066;2022-10-16T05:23:59;101119.16;;;12.46;100.00
65760;BME280;52496;51.082;5.066;2022-10-16T05:26:30;101119.16;;;12.46;100.00
65760;BME280;52496;51.082;5.066;2022-10-16T05:29:00;101129.88;;;12.46;100.00
65760;BME280;52496;51.082;5.066;2022-10-16T05:31:31;101133.59;;;12.45;100.00
65760;BME280;52496;51.082;5.066;2022-10-16T05:34:02;101137.25;;;12.44;100.00
65760;BME280;52496;51.082;5.066;2022-10-16T05:36:32;101144.47;;;12.43;100.00
65760;BME280;52496;51.082;5.066;2022-10-16T05:39:03;101143.84;;;12.41;100.00
65760;BME280;52496;51.082;5.066;2022-10-16T05:41:36;101145.91;;;12.39;100.00
65760;BME280;52496;51.082;5.066;2022-10-16T05:44:07;101153.94;;;12.39;100.00
65760;BME280;52496;51.082;5.066;2022-10-16T05:46:37;101164.84;;;12.37;100.00
65760;BME280;52496;51.082;5.066;2022-10-16T05:49:08;101168.56;;;12.36;100.00
65760;BME280;52496;51.082;5.066;2022-10-16T05:51:38;101156.78;;;12.37;100.00
65760;BME280;52496;51.082;5.066;2022-10-16T05:54:09;101161.50;;;12.35;100.00
65760;BME280;52496;51.082;5.066;2022-10-16T05:56:40;101166.88;;;12.35;100.00
65760;BME280;52496;51.082;5.066;2022-10-16T05:59:11;101172.22;;;12.35;100.00
65760;BME280;52496;51.082;5.066;2022-10-16T06:01:41;101179.66;;;12.33;100.00
65760;BME280;52496;51.082;5.066;2022-10-16T06:04:12;101178.84;;;12.33;100.00
65760;BME280;52496;51.082;5.066;2022-10-16T06:06:42;101190.38;;;12.33;100.00
65760;BME280;52496;51.082;5.066;2022-10-16T06:09:16;101178.84;;;12.33;100.00
65760;BME280;52496;51.082;5.066;2022-10-16T06:11:46;101181.69;;;12.31;100.00
65760;BME280;52496;51.082;5.066;2022-10-16T06:14:17;101179.00;;;12.31;100.00
65760;BME280;52496;51.082;5.066;2022-10-16T06:16:47;101187.03;;;12.31;100.00
65760;BME280;52496;51.082;5.066;2022-10-16T06:19:18;101189.72;;;12.31;100.00
65760;BME280;52496;51.082;5.066;2022-10-16T06:21:48;101207.69;;;12.31;100.00
65760;BME280;52496;51.082;5.066;2022-10-16T06:24:19;101201.47;;;12.30;100.00
65760;BME280;52496;51.082;5.066;2022-10-16T06:26:49;101196.13;;;12.30;100.00
65760;BME280;52496;51.082;5.066;2022-10-16T06:29:20;101199.19;;;12.27;100.00
65760;BME280;52496;51.082;5.066;2022-10-16T06:31:51;101207.22;;;12.27;100.00
65760;BME280;52496;51.082;5.066;2022-10-16T06:34:23;101203.50;;;12.28;100.00
65760;BME280;52496;51.082;5.066;2022-10-16T06:36:53;101207.22;;;12.27;100.00
65760;BME280;52496;51.082;5.066;2022-10-16T06:39:24;101208.88;;;12.28;100.00
65760;BME280;52496;51.082;5.066;2022-10-16T06:41:54;101213.22;;;12.29;100.00
65760;BME280;52496;51.082;5.066;2022-10-16T06:44:25;101211.56;;;12.28;100.00
65760;BME280;52496;51.082;5.066;2022-10-16T06:46:55;101216.25;;;12.26;100.00
65760;BME280;52496;51.082;5.066;2022-10-16T06:49:26;101217.28;;;12.25;100.00
65760;BME280;52496;51.082;5.066;2022-10-16T06:51:58;101211.94;;;12.25;100.00
65760;BME280;52496;51.082;5.066;2022-10-16T06:54:29;101224.97;;;12.28;100.00
65760;BME280;52496;51.082;5.066;2022-10-16T06:57:00;101223.75;;;12.31;100.00
65760;BME280;52496;51.082;5.066;2022-10-16T06:59:31;101231.25;;;12.35;100.00
65760;BME280;52496;51.082;5.066;2022-10-16T07:02:02;101248.25;;;12.43;100.00
65760;BME280;52496;51.082;5.066;2022-10-16T07:04:33;101252.88;;;12.49;100.00
65760;BME280;52496;51.082;5.066;2022-10-16T07:07:03;101259.53;;;12.53;100.00
65760;BME280;52496;51.082;5.066;2022-10-16T07:09:34;101264.97;;;12.59;100.00
65760;BME280;52496;51.082;5.066;2022-10-16T07:12:04;101270.44;;;12.66;100.00
65760;BME280;52496;51.082;5.066;2022-10-16T07:14:35;101285.78;;;12.72;100.00
65760;BME280;52496;51.082;5.066;2022-10-16T07:17:05;101278.00;;;12.77;100.00
65760;BME280;52496;51.082;5.066;2022-10-16T07:19:36;101286.31;;;12.82;100.00
65760;BME280;52496;51.082;5.066;2022-10-16T07:22:07;101290.94;;;12.89;100.00
65760;BME280;52496;51.082;5.066;2022-10-16T07:24:37;101298.88;;;12.97;100.00
65760;BME280;52496;51.082;5.066;2022-10-16T07:27:08;101307.19;;;13.02;100.00
65760;BME280;52496;51.082;5.066;2022-10-16T07:29:38;101301.53;;;13.12;100.00
65760;BME280;52496;51.082;5.066;2022-10-16T07:32:09;101312.97;;;13.20;100.00
65760;BME280;52496;51.082;5.066;2022-10-16T07:34:40;101313.72;;;13.29;100.00
65760;BME280;52496;51.082;5.066;2022-10-16T07:37:10;101314.44;;;13.38;100.00
65760;BME280;52496;51.082;5.066;2022-10-16T07:39:40;101314.69;;;13.43;100.00
65760;BME280;52496;51.082;5.066;2022-10-16T07:42:11;101320.50;;;13.46;100.00
65760;BME280;52496;51.082;5.066;2022-10-16T07:44:41;101328.25;;;13.56;100.00
65760;BME280;52496;51.082;5.066;2022-10-16T07:47:12;101336.19;;;13.64;100.00
65760;BME280;52496;51.082;5.066;2022-10-16T07:49:43;101338.16;;;13.77;100.00
65760;BME280;52496;51.082;5.066;2022-10-16T07:52:13;101339.50;;;13.88;100.00
65760;BME280;52496;51.082;5.066;2022-10-16T07:54:43;101349.94;;;13.97;100.00
65760;BME280;52496;51.082;5.066;2022-10-16T07:57:14;101356.63;;;14.08;100.00
65760;BME280;52496;51.082;5.066;2022-10-16T07:59:49;101361.47;;;14.19;100.00
65760;BME280;52496;51.082;5.066;2022-10-16T08:02:20;101364.03;;;14.28;100.00
65760;BME280;52496;51.082;5.066;2022-10-16T08:04:50;101367.56;;;14.35;100.00
65760;BME280;52496;51.082;5.066;2022-10-16T08:07:21;101375.91;;;14.40;100.00
65760;BME280;52496;51.082;5.066;2022-10-16T08:09:52;101376.13;;;14.45;100.00
65760;BME280;52496;51.082;5.066;2022-10-16T08:12:22;101375.53;;;14.50;100.00
65760;BME280;52496;51.082;5.066;2022-10-16T08:14:53;101375.22;;;14.59;100.00
65760;BME280;52496;51.082;5.066;2022-10-16T08:17:23;101374.84;;;14.69;100.00
65760;BME280;52496;51.082;5.066;2022-10-16T08:19:54;101386.94;;;14.80;100.00
65760;BME280;52496;51.082;5.066;2022-10-16T08:22:24;101378.28;;;14.91;100.00
65760;BME280;52496;51.082;5.066;2022-10-16T08:24:54;101387.44;;;15.03;100.00
65760;BME280;52496;51.082;5.066;2022-10-16T08:27:25;101387.94;;;15.13;100.00
65760;BME280;52496;51.082;5.066;2022-10-16T08:30:00;101391.69;;;15.26;100.00
65760;BME280;52496;51.082;5.066;2022-10-16T08:32:31;101386.75;;;15.36;100.00
65760;BME280;52496;51.082;5.066;2022-10-16T08:35:02;101388.03;;;15.47;100.00
65760;BME280;52496;51.082;5.066;2022-10-16T08:37:32;101397.38;;;15.57;100.00
65760;BME280;52496;51.082;5.066;2022-10-16T08:40:05;101398.47;;;15.70;100.00
65760;BME280;52496;51.082;5.066;2022-10-16T08:48:53;101394.78;;;16.04;98.85
65760;BME280;52496;51.082;5.066;2022-10-16T08:51:31;101402.66;;;16.19;98.06
65760;BME280;52496;51.082;5.066;2022-10-16T08:54:14;101408.25;;;16.31;97.08
65760;BME280;52496;51.082;5.066;2022-10-16T08:56:46;101405.34;;;16.45;97.22
65760;BME280;52496;51.082;5.066;2022-10-16T08:59:16;101402.66;;;16.59;93.51
65760;BME280;52496;51.082;5.066;2022-10-16T09:01:50;101410.09;;;16.70;94.64
65760;BME280;52496;51.082;5.066;2022-10-16T09:04:53;101410.94;;;16.84;93.39
65760;BME280;52496;51.082;5.066;2022-10-16T09:07:55;101410.47;;;16.93;90.82
65760;BME280;52496;51.082;5.066;2022-10-16T09:10:43;101412.72;;;17.03;90.66
65760;BME280;52496;51.082;5.066;2022-10-16T09:13:43;101416.66;;;17.14;89.39
65760;BME280;52496;51.082;5.066;2022-10-16T09:19:05;101429.44;;;17.38;88.91
65760;BME280;52496;51.082;5.066;2022-10-16T09:21:42;101425.66;;;17.46;86.33
65760;BME280;52496;51.082;5.066;2022-10-16T09:24:19;101438.91;;;17.54;86.98
65760;BME280;52496;51.082;5.066;2022-10-16T09:26:50;101441.34;;;17.69;86.43
65760;BME280;52496;51.082;5.066;2022-10-16T09:29:21;101434.00;;;17.76;84.89
65760;BME280;52496;51.082;5.066;2022-10-16T09:31:54;101436.69;;;17.83;83.89
65760;BME280;52496;51.082;5.066;2022-10-16T09:34:32;101440.41;;;17.88;83.94
65760;BME280;52496;51.082;5.066;2022-10-16T09:37:08;101441.41;;;17.94;83.38
65760;BME280;52496;51.082;5.066;2022-10-16T09:39:51;101440.50;;;18.07;82.78
65760;BME280;52496;51.082;5.066;2022-10-16T09:42:27;101446.03;;;18.19;82.31
65760;BME280;52496;51.082;5.066;2022-10-16T09:44:58;101438.47;;;18.27;80.26
65760;BME280;52496;51.082;5.066;2022-10-16T09:47:30;101434.88;;;18.33;80.80
65760;BME280;52496;51.082;5.066;2022-10-16T09:50:22;101444.16;;;18.44;81.17
65760;BME280;52496;51.082;5.066;2022-10-16T09:53:14;101455.31;;;18.54;79.63
65760;BME280;52496;51.082;5.066;2022-10-16T09:55:52;101447.72;;;18.63;77.46
65760;BME280;52496;51.082;5.066;2022-10-16T09:58:23;101445.84;;;18.64;78.85
65760;BME280;52496;51.082;5.066;2022-10-16T10:00:54;101450.28;;;18.58;78.42
65760;BME280;52496;51.082;5.066;2022-10-16T10:12:00;101445.22;;;18.62;79.83
65760;BME280;52496;51.082;5.066;2022-10-16T10:14:38;101454.41;;;18.86;78.45
65760;BME280;52496;51.082;5.066;2022-10-16T10:17:19;101454.13;;;18.94;77.78
65760;BME280;52496;51.082;5.066;2022-10-16T10:20:13;101457.88;;;18.93;78.11
65760;BME280;52496;51.082;5.066;2022-10-16T10:22:43;101462.97;;;18.83;77.74
65760;BME280;52496;51.082;5.066;2022-10-16T10:28:15;101465.16;;;18.74;77.53
65760;BME280;52496;51.082;5.066;2022-10-16T10:39:01;101468.63;;;18.56;78.18
65760;BME280;52496;51.082;5.066;2022-10-16T10:42:05;101472.19;;;18.82;77.86
65760;BME280;52496;51.082;5.066;2022-10-16T10:45:15;101466.25;;;19.10;76.42
65760;BME280;52496;51.082;5.066;2022-10-16T10:51:01;101463.97;;;19.07;75.24
65760;BME280;52496;51.082;5.066;2022-10-16T10:56:28;101465.66;;;19.56;73.98
65760;BME280;52496;51.082;5.066;2022-10-16T11:02:00;101468.78;;;19.90;71.74
65760;BME280;52496;51.082;5.066;2022-10-16T11:07:30;101478.38;;;20.04;70.92
65760;BME280;52496;51.082;5.066;2022-10-16T11:10:21;101466.47;;;20.05;70.38
65760;BME280;52496;51.082;5.066;2022-10-16T11:12:58;101479.34;;;20.10;71.27
65760;BME280;52496;51.082;5.066;2022-10-16T11:15:33;101478.59;;;20.33;70.73
65760;BME280;52496;51.082;5.066;2022-10-16T11:18:06;101469.50;;;20.51;68.43
65760;BME280;52496;51.082;5.066;2022-10-16T11:20:42;101476.63;;;20.52;68.29
65760;BME280;52496;51.082;5.066;2022-10-16T11:23:21;101467.97;;;20.43;68.94
65760;BME280;52496;51.082;5.066;2022-10-16T11:25:57;101463.53;;;20.60;68.14
65760;BME280;52496;51.082;5.066;2022-10-16T11:28:34;101477.22;;;20.89;65.44
65760;BME280;52496;51.082;5.066;2022-10-16T11:31:13;101470.34;;;20.87;66.18
65760;BME280;52496;51.082;5.066;2022-10-16T11:33:55;101481.47;;;20.85;67.08
65760;BME280;52496;51.082;5.066;2022-10-16T11:36:33;101474.38;;;20.84;66.37
65760;BME280;52496;51.082;5.066;2022-10-16T11:39:24;101470.94;;;21.12;64.63
65760;BME280;52496;51.082;5.066;2022-10-16T11:42:18;101469.56;;;21.38;65.14
65760;BME280;52496;51.082;5.066;2022-10-16T11:44:55;101473.00;;;21.34;61.90
65760;BME280;52496;51.082;5.066;2022-10-16T11:52:55;101466.50;;;21.23;65.53
65760;BME280;52496;51.082;5.066;2022-10-16T11:55:39;101472.75;;;21.47;63.79
65760;BME280;52496;51.082;5.066;2022-10-16T11:59:07;101468.22;;;21.81;62.69
65760;BME280;52496;51.082;5.066;2022-10-16T12:01:49;101471.22;;;21.96;62.16
65760;BME280;52496;51.082;5.066;2022-10-16T12:04:28;101474.44;;;22.22;61.21
65760;BME280;52496;51.082;5.066;2022-10-16T12:07:09;101476.91;;;22.40;59.77
65760;BME280;52496;51.082;5.066;2022-10-16T12:09:41;101471.44;;;22.57;60.46
65760;BME280;52496;51.082;5.066;2022-10-16T12:12:45;101473.75;;;22.65;58.95
65760;BME280;52496;51.082;5.066;2022-10-16T12:15:30;101469.88;;;22.61;60.08
65760;BME280;52496;51.082;5.066;2022-10-16T12:18:01;101470.75;;;22.67;59.00
65760;BME280;52496;51.082;5.066;2022-10-16T12:20:32;101467.81;;;22.52;60.02
65760;BME280;52496;51.082;5.066;2022-10-16T12:23:06;101468.81;;;22.29;60.43
65760;BME280;52496;51.082;5.066;2022-10-16T12:25:39;101470.56;;;22.06;61.01
65760;BME280;52496;51.082;5.066;2022-10-16T12:28:21;101469.31;;;21.80;63.37
65760;BME280;52496;51.082;5.066;2022-10-16T12:30:55;101459.09;;;21.59;64.03
65760;BME280;52496;51.082;5.066;2022-10-16T12:33:29;101466.84;;;21.38;64.81
65760;BME280;52496;51.082;5.066;2022-10-16T12:36:04;101471.47;;;21.26;65.99
65760;BME280;52496;51.082;5.066;2022-10-16T12:38:49;101467.25;;;21.18;65.83
65760;BME280;52496;51.082;5.066;2022-10-16T12:41:29;101470.00;;;21.06;63.40
65760;BME280;52496;51.082;5.066;2022-10-16T12:44:01;101473.66;;;21.00;65.15
65760;BME280;52496;51.082;5.066;2022-10-16T12:46:38;101461.81;;;21.06;64.60
65760;BME280;52496;51.082;5.066;2022-10-16T12:51:42;101477.25;;;21.29;64.04
65760;BME280;52496;51.082;5.066;2022-10-16T12:54:36;101473.38;;;21.37;63.71
65760;BME280;52496;51.082;5.066;2022-10-16T12:57:27;101468.88;;;21.31;62.87
65760;BME280;52496;51.082;5.066;2022-10-16T13:00:21;101465.56;;;21.29;64.99
65760;BME280;52496;51.082;5.066;2022-10-16T13:03:57;101475.34;;;21.30;66.57
65760;BME280;52496;51.082;5.066;2022-10-16T13:09:18;101479.91;;;21.01;64.37
65760;BME280;52496;51.082;5.066;2022-10-16T13:17:46;101501.56;;;20.84;66.78
65760;BME280;52496;51.082;5.066;2022-10-16T13:29:00;101494.66;;;20.46;68.72
65760;BME280;52496;51.082;5.066;2022-10-16T13:31:32;101500.31;;;20.45;68.31
65760;BME280;52496;51.082;5.066;2022-10-16T13:34:05;101502.22;;;20.44;68.55
65760;BME280;52496;51.082;5.066;2022-10-16T13:36:45;101502.81;;;20.46;69.61
65760;BME280;52496;51.082;5.066;2022-10-16T13:39:27;101489.84;;;20.48;69.53
65760;BME280;52496;51.082;5.066;2022-10-16T13:42:02;101492.75;;;20.35;68.50
65760;BME280;52496;51.082;5.066;2022-10-16T13:44:40;101492.63;;;20.30;70.49
65760;BME280;52496;51.082;5.066;2022-10-16T13:47:27;101501.81;;;20.29;70.95
65760;BME280;52496;51.082;5.066;2022-10-16T13:50:09;101492.38;;;20.31;69.56
65760;BME280;52496;51.082;5.066;2022-10-16T13:52:41;101501.97;;;20.34;70.38
65760;BME280;52496;51.082;5.066;2022-10-16T13:55:17;101498.19;;;20.35;70.06
65760;BME280;52496;51.082;5.066;2022-10-16T13:57:48;101493.47;;;20.42;70.20
65760;BME280;52496;51.082;5.066;2022-10-16T14:00:24;101486.78;;;20.56;68.87
65760;BME280;52496;51.082;5.066;2022-10-16T14:03:02;101483.94;;;20.75;67.84
65760;BME280;52496;51.082;5.066;2022-10-16T14:05:34;101482.03;;;20.87;67.79
65760;BME280;52496;51.082;5.066;2022-10-16T14:08:05;101488.31;;;20.88;67.04
65760;BME280;52496;51.082;5.066;2022-10-16T14:10:55;101472.84;;;20.76;64.81
65760;BME280;52496;51.082;5.066;2022-10-16T14:13:31;101461.25;;;20.69;67.79
65760;BME280;52496;51.082;5.066;2022-10-16T14:16:07;101459.72;;;20.61;66.50
65760;BME280;52496;51.082;5.066;2022-10-16T14:18:39;101462.78;;;20.53;67.06
65760;BME280;52496;51.082;5.066;2022-10-16T14:21:15;101458.28;;;20.47;68.66
65760;BME280;52496;51.082;5.066;2022-10-16T14:23:46;101464.91;;;20.39;68.30
65760;BME280;52496;51.082;5.066;2022-10-16T14:26:21;101457.91;;;20.32;68.45
65760;BME280;52496;51.082;5.066;2022-10-16T14:29:25;101465.69;;;20.28;69.58
65760;BME280;52496;51.082;5.066;2022-10-16T14:32:00;101461.09;;;20.29;69.47
65760;BME280;52496;51.082;5.066;2022-10-16T14:34:36;101469.00;;;20.30;70.07